sensor_id;sensor_type;location;lat;lon;timestamp;temperature;humidity
13440;DHT22;6792;57.698;11.946;2023-11-18T00:01:25;8.10;51.10
13440;DHT22;6792;57.698;11.946;2023-11-18T00:04:04;8.10;51.00
13440;DHT22;6792;57.698;11.946;2023-11-18T00:06:42;8.10;51.60
13440;DHT22;6792;57.698;11.946;2023-11-18T00:09:17;8.10;51.70
13440;DHT22;6792;57.698;11.946;2023-11-18T00:11:49;8.10;51.80
13440;DHT22;6792;57.698;11.946;2023-11-18T00:14:21;8.10;51.20
13440;DHT22;6792;57.698;11.946;2023-11-18T00:16:52;8.20;51.60
13440;DHT22;6792;57.698;11.946;2023-11-18T00:19:28;8.20;51.70
13440;DHT22;6792;57.698;11.946;2023-11-18T00:22:01;8.20;51.60
13440;DHT22;6792;57.698;11.946;2023-11-18T00:24:31;8.20;51.70
13440;DHT22;6792;57.698;11.946;2023-11-18T00:27:02;7.50;50.90
13440;DHT22;6792;57.698;11.946;2023-11-18T00:29:34;8.20;51.70
13440;DHT22;6792;57.698;11.946;2023-11-18T00:32:09;8.20;51.60
13440;DHT22;6792;57.698;11.946;2023-11-18T00:34:39;8.20;51.70
13440;DHT22;6792;57.698;11.946;2023-11-18T00:37:10;8.20;51.80
13440;DHT22;6792;57.698;11.946;2023-11-18T00:39:41;8.20;51.20
13440;DHT22;6792;57.698;11.946;2023-11-18T00:42:11;8.20;51.20
13440;DHT22;6792;57.698;11.946;2023-11-18T00:44:46;8.20;51.80
13440;DHT22;6792;57.698;11.946;2023-11-18T00:47:33;8.30;51.80
13440;DHT22;6792;57.698;11.946;2023-11-18T00:53:01;8.20;51.20
13440;DHT22;6792;57.698;11.946;2023-11-18T00:55:35;8.20;51.70
13440;DHT22;6792;57.698;11.946;2023-11-18T00:58:21;8.20;51.90
13440;DHT22;6792;57.698;11.946;2023-11-18T01:00:51;8.20;51.70
13440;DHT22;6792;57.698;11.946;2023-11-18T01:03:27;8.30;51.70
13440;DHT22;6792;57.698;11.946;2023-11-18T01:06:17;8.30;51.70
13440;DHT22;6792;57.698;11.946;2023-11-18T01:08:57;8.30;51.80
13440;DHT22;6792;57.698;11.946;2023-11-18T01:11:37;8.20;51.40
13440;DHT22;6792;57.698;11.946;2023-11-18T01:14:23;8.30;51.90
13440;DHT22;6792;57.698;11.946;2023-11-18T01:17:14;8.30;51.70
13440;DHT22;6792;57.698;11.946;2023-11-18T01:19:53;8.30;51.20
13440;DHT22;6792;57.698;11.946;2023-11-18T01:22:32;8.30;51.80
13440;DHT22;6792;57.698;11.946;2023-11-18T01:25:09;8.30;51.80
13440;DHT22;6792;57.698;11.946;2023-11-18T01:27:45;8.30;51.80
13440;DHT22;6792;57.698;11.946;2023-11-18T01:30:16;8.30;51.70
13440;DHT22;6792;57.698;11.946;2023-11-18T01:32:46;8.20;51.60
13440;DHT22;6792;57.698;11.946;2023-11-18T01:35:17;8.20;51.70
13440;DHT22;6792;57.698;11.946;2023-11-18T01:37:47;8.20;51.80
13440;DHT22;6792;57.698;11.946;2023-11-18T01:40:18;8.20;51.80
13440;DHT22;6792;57.698;11.946;2023-11-18T01:42:49;8.20;51.70
13440;DHT22;6792;57.698;11.946;2023-11-18T01:45:22;8.20;51.70
13440;DHT22;6792;57.698;11.946;2023-11-18T01:47:56;8.10;51.70
13440;DHT22;6792;57.698;11.946;2023-11-18T01:50:41;8.10;51.80
13440;DHT22;6792;57.698;11.946;2023-11-18T01:53:20;8.10;51.70
13440;DHT22;6792;57.698;11.946;2023-11-18T01:56:04;8.10;52.30
13440;DHT22;6792;57.698;11.946;2023-11-18T02:01:43;8.00;51.20
13440;DHT22;6792;57.698;11.946;2023-11-18T02:04:17;8.00;51.80
13440;DHT22;6792;57.698;11.946;2023-11-18T02:06:49;7.90;51.20
13440;DHT22;6792;57.698;11.946;2023-11-18T02:09:26;7.90;51.80
13440;DHT22;6792;57.698;11.946;2023-11-18T02:11:59;7.90;51.80
13440;DHT22;6792;57.698;11.946;2023-11-18T02:14:37;7.90;51.90
13440;DHT22;6792;57.698;11.946;2023-11-18T02:17:12;7.80;51.30
13440;DHT22;6792;57.698;11.946;2023-11-18T02:19:43;7.80;52.10
13440;DHT22;6792;57.698;11.946;2023-11-18T02:22:18;7.80;51.80
13440;DHT22;6792;57.698;11.946;2023-11-18T02:31:36;7.80;51.40
13440;DHT22;6792;57.698;11.946;2023-11-18T02:34:31;7.70;51.40
13440;DHT22;6792;57.698;11.946;2023-11-18T02:37:10;7.70;52.10
13440;DHT22;6792;57.698;11.946;2023-11-18T02:39:43;7.70;52.10
13440;DHT22;6792;57.698;11.946;2023-11-18T02:42:22;7.70;52.20
13440;DHT22;6792;57.698;11.946;2023-11-18T02:45:07;7.70;52.00
13440;DHT22;6792;57.698;11.946;2023-11-18T02:47:48;7.70;52.00
13440;DHT22;6792;57.698;11.946;2023-11-18T02:50:32;7.70;52.00
13440;DHT22;6792;57.698;11.946;2023-11-18T02:53:07;7.70;51.50
13440;DHT22;6792;57.698;11.946;2023-11-18T02:55:37;7.70;52.10
13440;DHT22;6792;57.698;11.946;2023-11-18T02:58:14;7.70;52.20
13440;DHT22;6792;57.698;11.946;2023-11-18T03:00:48;7.60;52.20
13440;DHT22;6792;57.698;11.946;2023-11-18T03:03:18;7.70;51.60
13440;DHT22;6792;57.698;11.946;2023-11-18T03:05:52;7.60;52.20
13440;DHT22;6792;57.698;11.946;2023-11-18T03:08:33;7.60;52.10
13440;DHT22;6792;57.698;11.946;2023-11-18T03:11:02;7.60;52.00
13440;DHT22;6792;57.698;11.946;2023-11-18T03:13:40;7.60;52.10
13440;DHT22;6792;57.698;11.946;2023-11-18T03:16:12;7.60;52.20
13440;DHT22;6792;57.698;11.946;2023-11-18T03:18:45;7.70;51.60
13440;DHT22;6792;57.698;11.946;2023-11-18T03:21:15;7.60;52.20
13440;DHT22;6792;57.698;11.946;2023-11-18T03:23:45;7.60;52.10
13440;DHT22;6792;57.698;11.946;2023-11-18T03:26:14;7.60;52.20
13440;DHT22;6792;57.698;11.946;2023-11-18T03:28:53;7.50;52.10
13440;DHT22;6792;57.698;11.946;2023-11-18T03:31:23;7.60;52.20
13440;DHT22;6792;57.698;11.946;2023-11-18T03:33:53;7.50;52.20
13440;DHT22;6792;57.698;11.946;2023-11-18T03:36:25;7.50;52.20
13440;DHT22;6792;57.698;11.946;2023-11-18T03:38:57;7.50;52.30
13440;DHT22;6792;57.698;11.946;2023-11-18T03:41:34;7.50;51.70
13440;DHT22;6792;57.698;11.946;2023-11-18T03:44:05;7.50;52.30
13440;DHT22;6792;57.698;11.946;2023-11-18T03:52:43;7.60;52.30
13440;DHT22;6792;57.698;11.946;2023-11-18T03:55:12;7.60;52.40
13440;DHT22;6792;57.698;11.946;2023-11-18T03:57:44;7.60;52.30
13440;DHT22;6792;57.698;11.946;2023-11-18T04:00:18;7.60;52.20
13440;DHT22;6792;57.698;11.946;2023-11-18T04:02:53;7.60;52.50
13440;DHT22;6792;57.698;11.946;2023-11-18T04:05:23;7.60;52.40
13440;DHT22;6792;57.698;11.946;2023-11-18T04:07:53;7.70;52.40
13440;DHT22;6792;57.698;11.946;2023-11-18T04:10:25;7.70;52.40
13440;DHT22;6792;57.698;11.946;2023-11-18T04:12:54;7.70;52.40
13440;DHT22;6792;57.698;11.946;2023-11-18T04:15:27;7.70;52.40
13440;DHT22;6792;57.698;11.946;2023-11-18T04:18:00;7.70;52.40
13440;DHT22;6792;57.698;11.946;2023-11-18T04:20:34;7.70;52.50
13440;DHT22;6792;57.698;11.946;2023-11-18T04:23:05;7.60;52.00
13440;DHT22;6792;57.698;11.946;2023-11-18T04:28:17;7.70;51.90
13440;DHT22;6792;57.698;11.946;2023-11-18T04:30:48;7.70;52.50
13440;DHT22;6792;57.698;11.946;2023-11-18T04:33:17;7.70;52.40
13440;DHT22;6792;57.698;11.946;2023-11-18T04:35:48;7.70;52.40
13440;DHT22;6792;57.698;11.946;2023-11-18T04:38:18;7.70;52.40
13440;DHT22;6792;57.698;11.946;2023-11-18T04:40:58;7.70;52.40
13440;DHT22;6792;57.698;11.946;2023-11-18T04:43:28;7.70;52.40
13440;DHT22;6792;57.698;11.946;2023-11-18T04:45:58;7.70;52.40
13440;DHT22;6792;57.698;11.946;2023-11-18T04:48:28;7.60;52.30
13440;DHT22;6792;57.698;11.946;2023-11-18T04:50:58;7.60;51.80
13440;DHT22;6792;57.698;11.946;2023-11-18T04:53:27;7.60;52.40
13440;DHT22;6792;57.698;11.946;2023-11-18T04:55:57;7.60;52.40
13440;DHT22;6792;57.698;11.946;2023-11-18T04:58:27;7.60;52.60
13440;DHT22;6792;57.698;11.946;2023-11-18T05:00:56;7.50;52.40
13440;DHT22;6792;57.698;11.946;2023-11-18T05:03:26;7.50;53.00
13440;DHT22;6792;57.698;11.946;2023-11-18T05:05:55;7.50;52.50
13440;DHT22;6792;57.698;11.946;2023-11-18T05:08:26;7.40;52.50
13440;DHT22;6792;57.698;11.946;2023-11-18T05:10:55;7.40;52.50
13440;DHT22;6792;57.698;11.946;2023-11-18T05:13:25;7.50;52.70
13440;DHT22;6792;57.698;11.946;2023-11-18T05:16:02;7.50;52.60
13440;DHT22;6792;57.698;11.946;2023-11-18T05:18:33;7.40;52.00
13440;DHT22;6792;57.698;11.946;2023-11-18T05:21:06;7.50;52.70
13440;DHT22;6792;57.698;11.946;2023-11-18T05:23:36;7.50;52.60
13440;DHT22;6792;57.698;11.946;2023-11-18T05:26:08;7.50;52.70
13440;DHT22;6792;57.698;11.946;2023-11-18T05:28:40;7.60;52.60
13440;DHT22;6792;57.698;11.946;2023-11-18T05:31:11;7.50;52.00
13440;DHT22;6792;57.698;11.946;2023-11-18T05:33:40;7.60;52.60
13440;DHT22;6792;57.698;11.946;2023-11-18T05:36:11;7.50;52.60
13440;DHT22;6792;57.698;11.946;2023-11-18T05:38:40;7.50;53.20
13440;DHT22;6792;57.698;11.946;2023-11-18T05:41:10;7.60;52.90
13440;DHT22;6792;57.698;11.946;2023-11-18T05:43:41;7.60;52.70
13440;DHT22;6792;57.698;11.946;2023-11-18T05:46:12;7.60;52.70
13440;DHT22;6792;57.698;11.946;2023-11-18T05:48:45;7.50;52.70
13440;DHT22;6792;57.698;11.946;2023-11-18T05:51:18;7.60;52.70
13440;DHT22;6792;57.698;11.946;2023-11-18T05:53:45;7.60;52.20
13440;DHT22;6792;57.698;11.946;2023-11-18T05:56:16;7.50;52.70
13440;DHT22;6792;57.698;11.946;2023-11-18T05:58:47;7.60;52.80
13440;DHT22;6792;57.698;11.946;2023-11-18T06:01:20;7.60;53.00
13440;DHT22;6792;57.698;11.946;2023-11-18T06:03:50;7.60;52.90
13440;DHT22;6792;57.698;11.946;2023-11-18T06:09:01;7.60;52.20
13440;DHT22;6792;57.698;11.946;2023-11-18T06:14:12;7.50;52.30
13440;DHT22;6792;57.698;11.946;2023-11-18T06:16:42;7.50;53.00
13440;DHT22;6792;57.698;11.946;2023-11-18T06:19:11;7.50;52.90
13440;DHT22;6792;57.698;11.946;2023-11-18T06:21:41;7.50;52.90
13440;DHT22;6792;57.698;11.946;2023-11-18T06:24:11;7.50;52.80
13440;DHT22;6792;57.698;11.946;2023-11-18T06:26:42;7.60;52.90
13440;DHT22;6792;57.698;11.946;2023-11-18T06:29:15;7.60;53.00
13440;DHT22;6792;57.698;11.946;2023-11-18T06:31:43;7.60;52.40
13440;DHT22;6792;57.698;11.946;2023-11-18T06:34:13;7.60;52.90
13440;DHT22;6792;57.698;11.946;2023-11-18T06:36:43;7.60;52.90
13440;DHT22;6792;57.698;11.946;2023-11-18T06:39:14;7.60;53.00
13440;DHT22;6792;57.698;11.946;2023-11-18T06:41:44;7.60;53.00
13440;DHT22;6792;57.698;11.946;2023-11-18T06:44:18;7.60;52.90
13440;DHT22;6792;57.698;11.946;2023-11-18T06:46:49;7.60;52.90
13440;DHT22;6792;57.698;11.946;2023-11-18T06:49:19;7.60;52.90
13440;DHT22;6792;57.698;11.946;2023-11-18T06:51:48;7.70;53.00
13440;DHT22;6792;57.698;11.946;2023-11-18T06:54:18;7.60;52.80
13440;DHT22;6792;57.698;11.946;2023-11-18T06:56:47;7.60;52.30
13440;DHT22;6792;57.698;11.946;2023-11-18T06:59:18;7.60;52.90
13440;DHT22;6792;57.698;11.946;2023-11-18T07:01:48;7.60;53.00
13440;DHT22;6792;57.698;11.946;2023-11-18T07:07:06;7.60;52.30
13440;DHT22;6792;57.698;11.946;2023-11-18T07:09:36;7.60;53.00
13440;DHT22;6792;57.698;11.946;2023-11-18T07:12:07;7.70;52.90
13440;DHT22;6792;57.698;11.946;2023-11-18T07:14:37;7.60;52.80
13440;DHT22;6792;57.698;11.946;2023-11-18T07:17:10;7.60;52.90
13440;DHT22;6792;57.698;11.946;2023-11-18T07:19:39;7.60;52.90
13440;DHT22;6792;57.698;11.946;2023-11-18T07:22:08;7.70;53.00
13440;DHT22;6792;57.698;11.946;2023-11-18T07:24:39;7.70;53.00
13440;DHT22;6792;57.698;11.946;2023-11-18T07:29:48;7.70;52.40
13440;DHT22;6792;57.698;11.946;2023-11-18T07:32:17;7.80;53.00
13440;DHT22;6792;57.698;11.946;2023-11-18T07:34:47;7.80;52.90
13440;DHT22;6792;57.698;11.946;2023-11-18T07:37:16;7.70;52.90
13440;DHT22;6792;57.698;11.946;2023-11-18T07:39:45;7.70;52.90
13440;DHT22;6792;57.698;11.946;2023-11-18T07:42:17;7.70;53.00
13440;DHT22;6792;57.698;11.946;2023-11-18T07:44:47;7.80;53.00
13440;DHT22;6792;57.698;11.946;2023-11-18T07:47:17;7.80;52.90
13440;DHT22;6792;57.698;11.946;2023-11-18T07:49:47;7.80;53.60
13440;DHT22;6792;57.698;11.946;2023-11-18T07:52:16;7.80;53.00
13440;DHT22;6792;57.698;11.946;2023-11-18T07:54:45;7.80;53.00
13440;DHT22;6792;57.698;11.946;2023-11-18T07:57:16;7.90;53.00
13440;DHT22;6792;57.698;11.946;2023-11-18T07:59:45;7.90;53.10
13440;DHT22;6792;57.698;11.946;2023-11-18T08:02:14;7.90;52.90
13440;DHT22;6792;57.698;11.946;2023-11-18T08:04:44;7.90;52.90
13440;DHT22;6792;57.698;11.946;2023-11-18T08:07:13;7.90;52.90
13440;DHT22;6792;57.698;11.946;2023-11-18T08:09:42;8.00;53.00
13440;DHT22;6792;57.698;11.946;2023-11-18T08:12:12;8.00;52.90
13440;DHT22;6792;57.698;11.946;2023-11-18T08:14:43;8.00;52.90
13440;DHT22;6792;57.698;11.946;2023-11-18T08:17:12;8.00;52.90
13440;DHT22;6792;57.698;11.946;2023-11-18T08:19:42;8.00;52.90
13440;DHT22;6792;57.698;11.946;2023-11-18T08:22:11;8.10;53.00
13440;DHT22;6792;57.698;11.946;2023-11-18T08:24:41;8.10;52.40
13440;DHT22;6792;57.698;11.946;2023-11-18T08:27:11;8.20;53.00
13440;DHT22;6792;57.698;11.946;2023-11-18T08:29:41;8.10;52.30
13440;DHT22;6792;57.698;11.946;2023-11-18T08:32:10;8.20;52.90
13440;DHT22;6792;57.698;11.946;2023-11-18T08:34:40;8.30;52.90
13440;DHT22;6792;57.698;11.946;2023-11-18T08:37:09;8.30;52.80
13440;DHT22;6792;57.698;11.946;2023-11-18T08:39:38;8.30;52.80
13440;DHT22;6792;57.698;11.946;2023-11-18T08:42:07;8.30;52.80
13440;DHT22;6792;57.698;11.946;2023-11-18T08:44:37;8.30;52.80
13440;DHT22;6792;57.698;11.946;2023-11-18T08:47:06;8.30;52.80
13440;DHT22;6792;57.698;11.946;2023-11-18T08:49:36;8.40;53.40
13440;DHT22;6792;57.698;11.946;2023-11-18T08:52:07;8.40;52.80
13440;DHT22;6792;57.698;11.946;2023-11-18T08:54:38;8.40;52.70
13440;DHT22;6792;57.698;11.946;2023-11-18T08:57:08;8.40;52.80
13440;DHT22;6792;57.698;11.946;2023-11-18T08:59:45;8.40;52.70
13440;DHT22;6792;57.698;11.946;2023-11-18T09:02:14;8.40;52.70
13440;DHT22;6792;57.698;11.946;2023-11-18T09:04:45;8.50;52.70
13440;DHT22;6792;57.698;11.946;2023-11-18T09:07:14;8.50;52.70
13440;DHT22;6792;57.698;11.946;2023-11-18T09:09:43;8.50;52.60
13440;DHT22;6792;57.698;11.946;2023-11-18T09:12:13;8.50;52.60
13440;DHT22;6792;57.698;11.946;2023-11-18T09:14:42;8.50;52.50
13440;DHT22;6792;57.698;11.946;2023-11-18T09:17:13;8.50;52.50
13440;DHT22;6792;57.698;11.946;2023-11-18T09:19:42;8.50;52.50
13440;DHT22;6792;57.698;11.946;2023-11-18T09:22:13;8.50;52.50
13440;DHT22;6792;57.698;11.946;2023-11-18T09:24:42;8.50;52.00
13440;DHT22;6792;57.698;11.946;2023-11-18T09:27:12;8.50;52.60
13440;DHT22;6792;57.698;11.946;2023-11-18T09:29:41;8.50;52.50
13440;DHT22;6792;57.698;11.946;2023-11-18T09:32:12;8.50;52.60
13440;DHT22;6792;57.698;11.946;2023-11-18T09:34:42;8.50;52.00
13440;DHT22;6792;57.698;11.946;2023-11-18T09:37:12;8.60;52.70
13440;DHT22;6792;57.698;11.946;2023-11-18T09:39:43;8.60;52.60
13440;DHT22;6792;57.698;11.946;2023-11-18T09:42:13;8.60;52.60
13440;DHT22;6792;57.698;11.946;2023-11-18T09:44:44;8.60;52.70
13440;DHT22;6792;57.698;11.946;2023-11-18T09:47:16;8.70;52.10
13440;DHT22;6792;57.698;11.946;2023-11-18T09:49:49;8.70;52.70
13440;DHT22;6792;57.698;11.946;2023-11-18T09:52:22;8.70;52.70
13440;DHT22;6792;57.698;11.946;2023-11-18T09:54:56;8.70;52.70
13440;DHT22;6792;57.698;11.946;2023-11-18T09:57:30;8.70;52.70
13440;DHT22;6792;57.698;11.946;2023-11-18T10:00:01;8.80;52.70
13440;DHT22;6792;57.698;11.946;2023-11-18T10:02:41;8.80;53.00
13440;DHT22;6792;57.698;11.946;2023-11-18T10:05:12;8.80;52.60
13440;DHT22;6792;57.698;11.946;2023-11-18T10:07:42;8.90;52.70
13440;DHT22;6792;57.698;11.946;2023-11-18T10:10:13;8.90;52.60
13440;DHT22;6792;57.698;11.946;2023-11-18T10:12:43;8.90;52.50
13440;DHT22;6792;57.698;11.946;2023-11-18T10:15:15;9.00;52.60
13440;DHT22;6792;57.698;11.946;2023-11-18T10:17:47;9.00;52.50
13440;DHT22;6792;57.698;11.946;2023-11-18T10:20:43;9.00;52.00
13440;DHT22;6792;57.698;11.946;2023-11-18T10:23:09;9.00;51.90
13440;DHT22;6792;57.698;11.946;2023-11-18T10:25:42;9.00;51.90
13440;DHT22;6792;57.698;11.946;2023-11-18T10:28:23;9.10;52.50
13440;DHT22;6792;57.698;11.946;2023-11-18T10:30:54;9.10;53.10
13440;DHT22;6792;57.698;11.946;2023-11-18T10:33:26;9.20;52.40
13440;DHT22;6792;57.698;11.946;2023-11-18T10:35:58;9.20;52.50
13440;DHT22;6792;57.698;11.946;2023-11-18T10:38:30;9.30;52.40
13440;DHT22;6792;57.698;11.946;2023-11-18T10:41:00;9.30;52.40
13440;DHT22;6792;57.698;11.946;2023-11-18T10:43:29;9.40;52.40
13440;DHT22;6792;57.698;11.946;2023-11-18T10:46:08;9.40;52.30
13440;DHT22;6792;57.698;11.946;2023-11-18T10:48:42;9.50;52.40
13440;DHT22;6792;57.698;11.946;2023-11-18T10:51:12;9.50;52.40
13440;DHT22;6792;57.698;11.946;2023-11-18T10:53:47;9.50;52.30
13440;DHT22;6792;57.698;11.946;2023-11-18T10:56:23;9.60;52.30
13440;DHT22;6792;57.698;11.946;2023-11-18T10:58:55;9.60;52.30
13440;DHT22;6792;57.698;11.946;2023-11-18T11:01:31;9.70;52.40
13440;DHT22;6792;57.698;11.946;2023-11-18T11:04:03;9.80;52.40
13440;DHT22;6792;57.698;11.946;2023-11-18T11:06:34;9.80;51.80
13440;DHT22;6792;57.698;11.946;2023-11-18T11:09:04;9.90;52.40
13440;DHT22;6792;57.698;11.946;2023-11-18T11:11:39;10.00;51.70
13440;DHT22;6792;57.698;11.946;2023-11-18T11:14:10;10.00;52.20
13440;DHT22;6792;57.698;11.946;2023-11-18T11:16:42;10.10;52.20
13440;DHT22;6792;57.698;11.946;2023-11-18T11:19:17;10.10;52.20
13440;DHT22;6792;57.698;11.946;2023-11-18T11:21:51;10.20;52.10
13440;DHT22;6792;57.698;11.946;2023-11-18T11:24:26;10.20;52.00
13440;DHT22;6792;57.698;11.946;2023-11-18T11:27:00;10.20;51.40
13440;DHT22;6792;57.698;11.946;2023-11-18T11:29:34;10.30;51.40
13440;DHT22;6792;57.698;11.946;2023-11-18T11:32:11;10.30;52.00
13440;DHT22;6792;57.698;11.946;2023-11-18T11:34:43;10.30;51.20
13440;DHT22;6792;57.698;11.946;2023-11-18T11:37:14;10.40;51.80
13440;DHT22;6792;57.698;11.946;2023-11-18T11:39:47;10.20;51.00
13440;DHT22;6792;57.698;11.946;2023-11-18T11:42:18;10.50;51.60
13440;DHT22;6792;57.698;11.946;2023-11-18T11:44:50;10.60;51.50
13440;DHT22;6792;57.698;11.946;2023-11-18T11:47:21;10.70;51.40
13440;DHT22;6792;57.698;11.946;2023-11-18T11:52:37;10.70;50.70
13440;DHT22;6792;57.698;11.946;2023-11-18T11:57:52;10.70;50.40
13440;DHT22;6792;57.698;11.946;2023-11-18T12:00:24;10.80;51.00
13440;DHT22;6792;57.698;11.946;2023-11-18T12:02:54;10.80;50.90
13440;DHT22;6792;57.698;11.946;2023-11-18T12:05:25;10.80;50.90
13440;DHT22;6792;57.698;11.946;2023-11-18T12:07:55;10.80;50.80
13440;DHT22;6792;57.698;11.946;2023-11-18T12:10:28;10.80;50.70
13440;DHT22;6792;57.698;11.946;2023-11-18T12:13:12;10.80;50.10
13440;DHT22;6792;57.698;11.946;2023-11-18T12:15:53;10.90;50.10
13440;DHT22;6792;57.698;11.946;2023-11-18T12:18:24;10.80;50.70
13440;DHT22;6792;57.698;11.946;2023-11-18T12:20:54;10.80;50.70
13440;DHT22;6792;57.698;11.946;2023-11-18T12:23:24;10.90;50.70
13440;DHT22;6792;57.698;11.946;2023-11-18T12:25:54;10.90;50.60
13440;DHT22;6792;57.698;11.946;2023-11-18T12:28:27;10.90;50.40
13440;DHT22;6792;57.698;11.946;2023-11-18T12:30:58;11.00;50.40
13440;DHT22;6792;57.698;11.946;2023-11-18T12:34:03;11.00;50.40
13440;DHT22;6792;57.698;11.946;2023-11-18T12:37:01;11.00;49.80
13440;DHT22;6792;57.698;11.946;2023-11-18T12:48:53;10.90;50.00
13440;DHT22;6792;57.698;11.946;2023-11-18T12:51:23;10.90;50.50
13440;DHT22;6792;57.698;11.946;2023-11-18T12:53:53;11.00;50.40
13440;DHT22;6792;57.698;11.946;2023-11-18T12:56:22;11.00;50.30
13440;DHT22;6792;57.698;11.946;2023-11-18T12:58:51;11.10;49.70
13440;DHT22;6792;57.698;11.946;2023-11-18T13:01:22;11.10;50.10
13440;DHT22;6792;57.698;11.946;2023-11-18T13:03:52;11.10;50.00
13440;DHT22;6792;57.698;11.946;2023-11-18T13:06:23;11.10;49.30
13440;DHT22;6792;57.698;11.946;2023-11-18T13:08:54;11.10;49.80
13440;DHT22;6792;57.698;11.946;2023-11-18T13:11:24;11.10;49.80
13440;DHT22;6792;57.698;11.946;2023-11-18T13:13:53;11.10;49.70
13440;DHT22;6792;57.698;11.946;2023-11-18T13:16:22;11.10;49.70
13440;DHT22;6792;57.698;11.946;2023-11-18T13:18:53;11.10;49.60
13440;DHT22;6792;57.698;11.946;2023-11-18T13:21:23;11.10;49.60
13440;DHT22;6792;57.698;11.946;2023-11-18T13:23:54;11.10;49.50
13440;DHT22;6792;57.698;11.946;2023-11-18T13:26:24;11.10;49.50
13440;DHT22;6792;57.698;11.946;2023-11-18T13:28:54;11.20;49.50
13440;DHT22;6792;57.698;11.946;2023-11-18T13:31:23;11.20;49.50
13440;DHT22;6792;57.698;11.946;2023-11-18T13:33:53;11.20;48.90
13440;DHT22;6792;57.698;11.946;2023-11-18T13:36:23;11.20;49.40
13440;DHT22;6792;57.698;11.946;2023-11-18T13:38:52;11.20;48.70
13440;DHT22;6792;57.698;11.946;2023-11-18T13:41:31;11.20;48.70
13440;DHT22;6792;57.698;11.946;2023-11-18T13:44:01;11.20;48.70
13440;DHT22;6792;57.698;11.946;2023-11-18T13:46:31;11.20;49.40
13440;DHT22;6792;57.698;11.946;2023-11-18T13:49:00;11.20;49.30
13440;DHT22;6792;57.698;11.946;2023-11-18T13:51:30;11.20;49.20
13440;DHT22;6792;57.698;11.946;2023-11-18T13:54:00;11.20;49.30
13440;DHT22;6792;57.698;11.946;2023-11-18T13:56:30;11.20;49.20
13440;DHT22;6792;57.698;11.946;2023-11-18T13:58:59;11.20;49.10
13440;DHT22;6792;57.698;11.946;2023-11-18T14:01:29;11.20;49.10
13440;DHT22;6792;57.698;11.946;2023-11-18T14:04:00;11.20;49.10
13440;DHT22;6792;57.698;11.946;2023-11-18T14:06:31;11.20;49.10
13440;DHT22;6792;57.698;11.946;2023-11-18T14:09:00;11.20;49.00
13440;DHT22;6792;57.698;11.946;2023-11-18T14:11:30;11.20;49.00
13440;DHT22;6792;57.698;11.946;2023-11-18T14:13:59;11.20;49.00
13440;DHT22;6792;57.698;11.946;2023-11-18T14:16:28;11.20;49.00
13440;DHT22;6792;57.698;11.946;2023-11-18T14:18:58;11.20;48.90
13440;DHT22;6792;57.698;11.946;2023-11-18T14:21:27;11.20;48.90
13440;DHT22;6792;57.698;11.946;2023-11-18T14:23:57;11.20;48.90
13440;DHT22;6792;57.698;11.946;2023-11-18T14:26:28;11.20;48.90
13440;DHT22;6792;57.698;11.946;2023-11-18T14:28:58;11.20;48.90
13440;DHT22;6792;57.698;11.946;2023-11-18T14:31:27;11.10;48.80
13440;DHT22;6792;57.698;11.946;2023-11-18T14:33:57;11.10;48.80
13440;DHT22;6792;57.698;11.946;2023-11-18T14:36:26;11.10;48.80
13440;DHT22;6792;57.698;11.946;2023-11-18T14:38:56;11.10;48.80
13440;DHT22;6792;57.698;11.946;2023-11-18T14:41:27;11.00;48.80
13440;DHT22;6792;57.698;11.946;2023-11-18T14:43:58;11.00;48.80
13440;DHT22;6792;57.698;11.946;2023-11-18T14:46:28;11.00;48.80
13440;DHT22;6792;57.698;11.946;2023-11-18T14:48:59;11.00;48.80
13440;DHT22;6792;57.698;11.946;2023-11-18T14:51:28;10.90;48.80
13440;DHT22;6792;57.698;11.946;2023-11-18T14:53:57;10.90;48.80
13440;DHT22;6792;57.698;11.946;2023-11-18T14:56:26;10.80;48.80
13440;DHT22;6792;57.698;11.946;2023-11-18T14:58:55;10.80;48.80
13440;DHT22;6792;57.698;11.946;2023-11-18T15:01:24;10.70;48.80
13440;DHT22;6792;57.698;11.946;2023-11-18T15:03:53;10.70;48.80
13440;DHT22;6792;57.698;11.946;2023-11-18T15:06:28;10.70;48.80
13440;DHT22;6792;57.698;11.946;2023-11-18T15:08:58;10.70;48.30
13440;DHT22;6792;57.698;11.946;2023-11-18T15:11:27;10.70;49.00
13440;DHT22;6792;57.698;11.946;2023-11-18T15:13:58;10.70;49.00
13440;DHT22;6792;57.698;11.946;2023-11-18T15:16:27;10.60;48.90
13440;DHT22;6792;57.698;11.946;2023-11-18T15:18:56;10.60;48.90
13440;DHT22;6792;57.698;11.946;2023-11-18T15:21:27;10.60;48.90
13440;DHT22;6792;57.698;11.946;2023-11-18T15:23:57;10.50;48.30
13440;DHT22;6792;57.698;11.946;2023-11-18T15:26:29;10.50;48.90
13440;DHT22;6792;57.698;11.946;2023-11-18T15:28:58;10.50;48.90
13440;DHT22;6792;57.698;11.946;2023-11-18T15:31:29;10.40;48.90
13440;DHT22;6792;57.698;11.946;2023-11-18T15:33:59;10.40;48.90
13440;DHT22;6792;57.698;11.946;2023-11-18T15:36:28;10.40;48.30
13440;DHT22;6792;57.698;11.946;2023-11-18T15:38:59;10.40;49.50
13440;DHT22;6792;57.698;11.946;2023-11-18T15:41:30;10.30;48.90
13440;DHT22;6792;57.698;11.946;2023-11-18T15:44:00;10.30;48.90
13440;DHT22;6792;57.698;11.946;2023-11-18T15:46:31;10.20;48.90
13440;DHT22;6792;57.698;11.946;2023-11-18T15:49:02;10.20;48.40
13440;DHT22;6792;57.698;11.946;2023-11-18T15:51:31;10.20;49.00
13440;DHT22;6792;57.698;11.946;2023-11-18T15:54:01;10.20;49.00
13440;DHT22;6792;57.698;11.946;2023-11-18T15:56:30;10.20;49.00
13440;DHT22;6792;57.698;11.946;2023-11-18T15:59:01;10.10;48.90
13440;DHT22;6792;57.698;11.946;2023-11-18T16:01:30;10.10;49.00
13440;DHT22;6792;57.698;11.946;2023-11-18T16:04:00;10.10;49.00
13440;DHT22;6792;57.698;11.946;2023-11-18T16:06:30;10.00;48.30
13440;DHT22;6792;57.698;11.946;2023-11-18T16:08:59;10.00;48.90
13440;DHT22;6792;57.698;11.946;2023-11-18T16:11:31;9.90;48.30
13440;DHT22;6792;57.698;11.946;2023-11-18T16:14:00;9.90;49.00
13440;DHT22;6792;57.698;11.946;2023-11-18T16:16:29;9.90;49.60
13440;DHT22;6792;57.698;11.946;2023-11-18T16:18:59;9.90;49.00
13440;DHT22;6792;57.698;11.946;2023-11-18T16:21:28;9.90;48.90
13440;DHT22;6792;57.698;11.946;2023-11-18T16:23:59;9.80;49.00
13440;DHT22;6792;57.698;11.946;2023-11-18T16:26:28;9.80;49.00
13440;DHT22;6792;57.698;11.946;2023-11-18T16:29:05;9.80;49.10
13440;DHT22;6792;57.698;11.946;2023-11-18T16:31:35;9.80;49.10
13440;DHT22;6792;57.698;11.946;2023-11-18T16:34:06;9.80;49.10
13440;DHT22;6792;57.698;11.946;2023-11-18T16:36:36;9.70;49.00
13440;DHT22;6792;57.698;11.946;2023-11-18T16:39:07;9.80;49.00
13440;DHT22;6792;57.698;11.946;2023-11-18T16:44:18;9.70;48.50
13440;DHT22;6792;57.698;11.946;2023-11-18T16:46:47;9.70;49.10
13440;DHT22;6792;57.698;11.946;2023-11-18T16:49:17;9.70;49.10
13440;DHT22;6792;57.698;11.946;2023-11-18T16:51:48;9.70;49.00
13440;DHT22;6792;57.698;11.946;2023-11-18T16:54:17;9.70;48.50
13440;DHT22;6792;57.698;11.946;2023-11-18T16:56:47;9.70;49.00
13440;DHT22;6792;57.698;11.946;2023-11-18T16:59:17;9.70;49.10
13440;DHT22;6792;57.698;11.946;2023-11-18T17:01:46;9.70;49.10